Portada
METAR-TAF:

METAR-TAF

Aeropuertos :

Aeropuerto Internacional Bonriki

Tarawa, Kiribati

latitud: 01-21N, longitud: 172-55E, altitud: 2 m

Observación

El informe se hizo hace 1 hora y 8 minutos, a las 23:00 UTC
Viento 13 kt del este
Temperatura 30°C
Humedad 66%
Presión 1009 hPa
Visibilidad 10 km o más
Escasas nubes a una altura de 2000 ft

METAR: NGTA 212300Z 10013KT 9999 FEW020 30/23 Q1009

Hora: 14:08 (00:08 UTC)

Pronóstico

El informe se hizo hace 51 minutos, a las 23:17 UTC
Pronóstico válido del 22 a las 00 UTC al 22 a las 24 UTC
Viento 13 kt del este
Visibilidad 10 km o más
Escasas nubes a una altura de 2000 ft
Probabilidad 40% :
Temporalmente
del 22 a las 00 UTC al 22 a las 06 UTC
Visibilidad: 5000 m
Cielo nuboso a una altura de 1500 ft
chaparrones de lluvia

TAF: NGTA 212317Z 2200/2224 09013KT 9999 FEW020 PROB40 TEMPO 2200/2206 5000 SHRA BKN015

Observaciones y pronósticos meteorológicos de más de 4000 aeropuertos (mensajes METAR y TAF).

Los puntos amarillos y rojos representan las estaciones disponibles.

Ponga el ratón en el punto deseado para ver el nombre de la estación.

Haga clic para ver las observaciones y los pronósticos meteorológicos.

Para cambiar el mapa : haga clic en los botones verdes con una cruz de color negro para hacer un zoom, en el botón verde con un guión para alejar o en las flechas verdes para mapas adyacentes.


METAR-TAF: